Time;durP1;ratioP1;P1;durP2;ratioP2;P2;SDS_P1;SDS_P2;PMS_P1;PMS_P2;Temp;Humidity;BMP_temperature;BMP_pressure;BME280_temperature;BME280_humidity;BME280_pressure;Samples;Min_cycle;Max_cycle;Signal;HPM_P1;HPM_P2
2023/11/18 00:00:13;;;;;;;14.03;7.83;;;1.80;99.90;;;;;;5129424;27;20206;-73
2023/11/18 00:03:00;;;;;;;18.43;9.13;;;1.80;99.90;;;;;;5127315;27;20692;-72
2023/11/18 00:05:47;;;;;;;13.53;7.20;;;1.80;99.90;;;;;;5129152;27;20300;-72
2023/11/18 00:08:35;;;;;;;13.13;6.97;;;1.90;99.90;;;;;;5123977;27;20200;-72
2023/11/18 00:11:23;;;;;;;14.63;6.87;;;1.80;99.90;;;;;;5126954;27;20230;-72
2023/11/18 00:14:13;;;;;;;9.63;5.53;;;1.70;99.90;;;;;;5125444;27;20202;-73
2023/11/18 00:17:00;;;;;;;16.93;7.83;;;1.70;99.90;;;;;;5129261;27;20221;-72
2023/11/18 00:19:47;;;;;;;4.87;3.10;;;1.70;99.90;;;;;;5127800;27;20199;-72
2023/11/18 00:22:34;;;;;;;13.73;7.60;;;1.80;99.90;;;;;;5122722;27;20218;-72
2023/11/18 00:25:21;;;;;;;13.73;7.60;;;1.80;99.90;;;;;;5124794;27;20198;-72
2023/11/18 00:28:09;;;;;;;14.97;7.77;;;1.80;99.90;;;;;;5124200;27;20196;-72
2023/11/18 00:30:57;;;;;;;6.63;3.20;;;1.80;99.90;;;;;;5121489;27;20258;-72
2023/11/18 00:33:45;;;;;;;22.03;8.37;;;1.80;99.90;;;;;;5126701;27;20242;-72
2023/11/18 00:36:32;;;;;;;14.40;6.90;;;1.80;99.90;;;;;;5123859;27;20286;-72
2023/11/18 00:39:20;;;;;;;18.90;8.23;;;1.80;99.90;;;;;;5127530;27;20254;-73
2023/11/18 00:42:07;;;;;;;5.70;3.40;;;2.00;99.90;;;;;;5129523;27;20193;-73
2023/11/18 00:44:55;;;;;;;12.23;6.07;;;1.90;99.90;;;;;;5126886;27;20677;-73
2023/11/18 00:47:43;;;;;;;14.13;7.10;;;2.00;99.90;;;;;;5130632;27;20198;-73
2023/11/18 00:50:31;;;;;;;13.93;7.50;;;1.90;99.90;;;;;;5128843;27;20206;-73
2023/11/18 00:53:18;;;;;;;15.43;7.83;;;1.90;99.90;;;;;;5125375;27;20299;-73
2023/11/18 00:56:09;;;;;;;16.93;8.17;;;2.00;99.90;;;;;;5118503;27;20654;-73
2023/11/18 00:58:56;;;;;;;18.37;8.63;;;2.00;99.90;;;;;;5125769;27;20202;-73
2023/11/18 01:01:44;;;;;;;18.10;9.73;;;2.00;99.90;;;;;;5123575;27;20197;-73
2023/11/18 01:04:33;;;;;;;16.57;9.53;;;2.00;99.90;;;;;;5125633;27;20197;-72
2023/11/18 01:07:20;;;;;;;18.97;9.43;;;2.00;99.90;;;;;;5127335;27;20217;-73
2023/11/18 01:10:09;;;;;;;15.60;8.27;;;2.10;99.90;;;;;;5126358;27;20293;-73
2023/11/18 01:12:57;;;;;;;13.67;6.83;;;2.10;99.90;;;;;;5128644;27;20296;-73
2023/11/18 01:15:44;;;;;;;16.20;8.33;;;2.00;99.90;;;;;;5121511;27;20199;-73
2023/11/18 01:18:32;;;;;;;15.03;7.93;;;2.10;99.90;;;;;;5124362;27;20290;-73
2023/11/18 01:21:20;;;;;;;14.30;8.10;;;2.10;99.90;;;;;;5121991;27;20277;-73
2023/11/18 01:24:09;;;;;;;17.87;9.43;;;2.10;99.90;;;;;;5123427;27;20202;-73
2023/11/18 01:26:56;;;;;;;12.70;6.53;;;2.10;99.90;;;;;;5129668;27;20630;-73
2023/11/18 01:29:44;;;;;;;14.83;8.27;;;2.10;99.90;;;;;;5124467;27;20199;-73
2023/11/18 01:32:31;;;;;;;14.07;8.23;;;2.20;99.90;;;;;;5125836;27;20563;-73
2023/11/18 01:35:19;;;;;;;14.90;8.70;;;2.10;99.90;;;;;;5121856;27;20272;-72
2023/11/18 01:38:08;;;;;;;14.57;8.47;;;2.10;99.90;;;;;;5122141;27;20654;-73
2023/11/18 01:40:55;;;;;;;13.80;8.23;;;2.20;99.90;;;;;;5128138;27;20197;-73
2023/11/18 01:43:42;;;;;;;13.67;7.93;;;2.20;99.90;;;;;;5124959;27;20282;-73
2023/11/18 01:46:30;;;;;;;14.27;8.00;;;2.20;99.90;;;;;;5121593;27;20207;-73
2023/11/18 01:49:18;;;;;;;17.73;9.50;;;2.20;99.90;;;;;;5119015;27;20596;-73
2023/11/18 01:52:07;;;;;;;12.23;6.53;;;2.20;99.90;;;;;;5126333;27;20736;-73
2023/11/18 01:54:56;;;;;;;12.57;8.10;;;2.30;99.90;;;;;;5119726;27;20203;-73
2023/11/18 01:57:45;;;;;;;8.47;4.20;;;2.30;99.90;;;;;;5124367;27;20233;-73
2023/11/18 02:00:34;;;;;;;15.63;8.77;;;2.20;99.90;;;;;;5129343;27;20202;-72
2023/11/18 02:03:21;;;;;;;16.13;8.70;;;2.30;99.90;;;;;;5115694;27;20198;-73
2023/11/18 02:06:10;;;;;;;16.53;8.83;;;2.30;99.90;;;;;;5127908;27;20198;-73
2023/11/18 02:08:57;;;;;;;19.47;9.27;;;2.30;99.90;;;;;;5128947;27;20661;-73
2023/11/18 02:11:54;;;;;;;17.27;9.40;;;2.30;99.90;;;;;;5127663;27;20234;-73
2023/11/18 02:14:41;;;;;;;15.13;9.10;;;2.30;99.90;;;;;;5119669;27;20195;-73
2023/11/18 02:17:28;;;;;;;14.63;8.37;;;2.40;99.90;;;;;;5124122;27;20190;-73
2023/11/18 02:20:16;;;;;;;15.50;9.07;;;2.40;99.90;;;;;;5116460;27;20205;-72
2023/11/18 02:23:03;;;;;;;15.90;8.87;;;2.20;99.90;;;;;;5124476;27;20560;-72
2023/11/18 02:25:52;;;;;;;8.90;5.10;;;2.30;99.90;;;;;;5125936;27;20194;-73
2023/11/18 02:28:39;;;;;;;7.83;3.57;;;2.30;99.90;;;;;;5117587;27;20203;-72
2023/11/18 02:31:31;;;;;;;11.23;6.10;;;2.40;99.90;;;;;;5125706;27;20281;-73
2023/11/18 02:34:23;;;;;;;14.67;8.43;;;2.30;99.90;;;;;;5122925;27;20214;-73
2023/11/18 02:37:12;;;;;;;14.17;8.37;;;2.40;99.90;;;;;;5118504;27;20226;-73
2023/11/18 02:40:07;;;;;;;11.77;7.13;;;2.30;99.90;;;;;;5126799;27;20308;-72
2023/11/18 02:42:56;;;;;;;16.60;9.53;;;2.40;99.90;;;;;;5129484;27;20198;-73
2023/11/18 02:45:43;;;;;;;16.97;8.60;;;2.40;99.90;;;;;;5114083;27;20201;-73
2023/11/18 02:48:31;;;;;;;14.50;8.80;;;2.40;99.90;;;;;;5124057;27;20231;-73
2023/11/18 02:51:18;;;;;;;15.90;8.07;;;2.40;99.90;;;;;;5121663;27;20568;-73
2023/11/18 02:54:06;;;;;;;20.33;9.10;;;2.40;99.90;;;;;;5122665;27;20198;-73
2023/11/18 02:56:53;;;;;;;16.30;9.10;;;2.40;99.90;;;;;;5123987;27;20328;-73
2023/11/18 02:59:42;;;;;;;18.27;9.47;;;2.40;99.90;;;;;;5120549;27;20244;-73
2023/11/18 03:02:30;;;;;;;14.70;7.27;;;2.40;99.90;;;;;;5124522;27;20204;-72
2023/11/18 03:05:18;;;;;;;16.13;8.60;;;2.40;99.90;;;;;;5120996;27;20213;-73
2023/11/18 03:08:06;;;;;;;14.90;7.97;;;2.40;99.90;;;;;;5119416;27;20198;-73
2023/11/18 03:10:54;;;;;;;16.73;8.97;;;2.40;99.90;;;;;;5119397;27;20232;-73
2023/11/18 03:13:41;;;;;;;14.00;7.67;;;2.50;99.90;;;;;;5122718;27;20310;-73
2023/11/18 03:16:30;;;;;;;16.33;8.63;;;2.40;99.90;;;;;;5126100;27;20213;-73
2023/11/18 03:19:17;;;;;;;17.20;10.13;;;2.40;99.90;;;;;;5119791;27;20209;-72
2023/11/18 03:22:06;;;;;;;15.60;8.23;;;2.30;99.90;;;;;;5125692;27;20205;-73
2023/11/18 03:24:53;;;;;;;15.60;9.00;;;2.40;99.90;;;;;;5121108;27;20782;-73
2023/11/18 03:27:40;;;;;;;13.20;8.13;;;2.40;99.90;;;;;;5125258;27;20673;-73
2023/11/18 03:30:28;;;;;;;15.03;8.73;;;2.40;99.90;;;;;;5120182;27;20272;-73
2023/11/18 03:33:18;;;;;;;15.07;8.83;;;2.30;99.90;;;;;;5127035;27;20221;-72
2023/11/18 03:36:06;;;;;;;14.23;7.30;;;2.40;99.90;;;;;;5128995;27;20224;-73
2023/11/18 03:38:54;;;;;;;17.30;7.70;;;2.40;99.90;;;;;;5128852;27;20230;-73
2023/11/18 03:41:44;;;;;;;14.10;7.67;;;2.40;99.90;;;;;;5127861;27;20657;-73
2023/11/18 03:44:31;;;;;;;10.87;6.73;;;2.40;99.90;;;;;;5124061;27;20225;-73
2023/11/18 03:47:18;;;;;;;13.50;7.57;;;2.30;99.90;;;;;;5127609;27;20213;-73
2023/11/18 03:50:09;;;;;;;10.40;6.87;;;2.30;99.90;;;;;;5127345;27;20633;-73
2023/11/18 03:52:56;;;;;;;8.90;5.20;;;2.30;99.90;;;;;;5123135;27;20219;-73
2023/11/18 03:55:43;;;;;;;14.23;8.70;;;2.30;99.90;;;;;;5121734;27;20197;-74
2023/11/18 03:58:32;;;;;;;12.70;7.10;;;2.20;99.90;;;;;;5127173;27;20213;-73
2023/11/18 04:01:22;;;;;;;9.17;4.83;;;2.20;99.90;;;;;;5124010;27;20337;-73
2023/11/18 04:04:10;;;;;;;8.83;5.70;;;2.30;99.90;;;;;;5129474;27;20580;-74
2023/11/18 04:07:00;;;;;;;13.90;7.20;;;2.10;99.90;;;;;;5130577;27;20215;-73
2023/11/18 04:09:48;;;;;;;10.43;6.67;;;2.20;99.90;;;;;;5124095;27;20250;-73
2023/11/18 04:12:35;;;;;;;10.17;6.37;;;2.20;99.90;;;;;;5124900;27;20217;-73
2023/11/18 04:15:22;;;;;;;9.30;5.77;;;2.10;99.90;;;;;;5123677;27;20582;-73
2023/11/18 04:18:09;;;;;;;9.37;5.50;;;2.10;99.90;;;;;;5127276;27;20224;-73
2023/11/18 04:20:57;;;;;;;7.73;5.27;;;2.10;99.90;;;;;;5118544;27;20233;-73
2023/11/18 04:23:47;;;;;;;8.83;5.63;;;2.10;99.90;;;;;;5121364;27;20700;-73
2023/11/18 04:26:34;;;;;;;11.20;6.43;;;2.00;99.90;;;;;;5122928;27;20657;-73
2023/11/18 04:29:23;;;;;;;10.00;5.63;;;2.00;99.90;;;;;;5126188;27;20347;-72
2023/11/18 04:32:10;;;;;;;8.83;5.43;;;2.10;99.90;;;;;;5123284;27;20213;-73
2023/11/18 04:34:57;;;;;;;11.57;7.30;;;2.10;99.90;;;;;;5119032;27;20710;-73
2023/11/18 04:37:45;;;;;;;11.20;6.67;;;2.10;99.90;;;;;;5118187;27;20265;-73
2023/11/18 04:40:34;;;;;;;8.63;5.07;;;2.10;99.90;;;;;;5121659;27;20226;-72
2023/11/18 04:43:22;;;;;;;8.80;5.23;;;2.10;99.90;;;;;;5120635;27;20255;-73
2023/11/18 04:46:09;;;;;;;7.03;4.10;;;2.20;99.90;;;;;;5123447;27;20194;-73
2023/11/18 04:48:56;;;;;;;4.27;3.00;;;2.10;99.90;;;;;;5125868;27;20217;-73
2023/11/18 04:51:43;;;;;;;6.30;4.03;;;2.20;99.90;;;;;;5122758;27;20736;-73
2023/11/18 04:54:30;;;;;;;11.47;6.93;;;2.20;99.90;;;;;;5126322;27;20230;-73
2023/11/18 04:57:19;;;;;;;13.97;6.63;;;2.10;99.90;;;;;;5122803;27;20206;-73
2023/11/18 05:00:11;;;;;;;14.00;5.93;;;2.10;99.90;;;;;;5122153;27;20321;-73
2023/11/18 05:02:58;;;;;;;9.33;5.23;;;2.20;99.90;;;;;;5122429;27;20656;-73
2023/11/18 05:05:46;;;;;;;8.17;5.43;;;2.20;99.90;;;;;;5122744;27;20664;-73
2023/11/18 05:08:33;;;;;;;9.93;5.40;;;2.20;99.90;;;;;;5121428;27;20298;-73
2023/11/18 05:11:21;;;;;;;7.43;5.03;;;2.20;99.90;;;;;;5120250;27;20237;-73
2023/11/18 05:14:11;;;;;;;7.40;5.00;;;2.20;99.90;;;;;;5125830;27;20579;-73
2023/11/18 05:16:58;;;;;;;8.30;4.97;;;2.20;99.90;;;;;;5123533;27;20229;-73
2023/11/18 05:19:45;;;;;;;8.97;4.43;;;2.20;99.90;;;;;;5126652;27;20232;-73
2023/11/18 05:22:32;;;;;;;5.20;3.37;;;2.20;99.90;;;;;;5122703;27;20289;-73
2023/11/18 05:25:20;;;;;;;13.70;6.03;;;2.20;99.90;;;;;;5121224;27;20610;-73
2023/11/18 05:28:08;;;;;;;9.97;5.87;;;2.20;99.90;;;;;;5121506;27;20206;-73
2023/11/18 05:30:58;;;;;;;10.50;5.93;;;2.20;99.90;;;;;;5121941;27;20202;-73
2023/11/18 05:33:51;;;;;;;9.93;5.73;;;2.20;99.90;;;;;;5118393;27;20724;-73
2023/11/18 05:36:40;;;;;;;11.00;6.33;;;2.30;99.90;;;;;;5122971;27;20350;-73
2023/11/18 05:39:30;;;;;;;11.80;6.60;;;2.20;99.90;;;;;;5117865;27;20199;-73
2023/11/18 05:42:17;;;;;;;12.83;7.83;;;2.20;99.90;;;;;;5124978;27;20206;-72
2023/11/18 05:45:07;;;;;;;12.80;7.40;;;2.30;99.90;;;;;;5117624;27;20237;-72
2023/11/18 05:47:56;;;;;;;9.43;4.50;;;2.30;99.90;;;;;;5117822;27;20202;-73
2023/11/18 05:50:44;;;;;;;13.00;7.70;;;2.30;99.90;;;;;;5120912;27;20213;-72
2023/11/18 05:53:31;;;;;;;12.33;5.70;;;2.30;99.90;;;;;;5119428;27;20210;-72
2023/11/18 05:56:19;;;;;;;15.73;7.90;;;2.30;99.90;;;;;;5121527;27;20335;-73
2023/11/18 05:59:08;;;;;;;14.00;7.83;;;2.30;99.90;;;;;;5126728;27;20311;-73
2023/11/18 06:01:56;;;;;;;12.87;8.10;;;2.30;99.90;;;;;;5129207;27;20203;-73
2023/11/18 06:04:45;;;;;;;13.57;8.23;;;2.30;99.90;;;;;;5126370;27;20191;-73
2023/11/18 06:07:32;;;;;;;12.87;7.90;;;2.30;99.90;;;;;;5123028;27;20628;-72
2023/11/18 06:10:20;;;;;;;13.93;7.33;;;2.30;99.90;;;;;;5124309;27;20226;-73
2023/11/18 06:13:08;;;;;;;14.80;7.87;;;2.30;99.90;;;;;;5121535;27;20217;-73
2023/11/18 06:15:56;;;;;;;8.03;4.30;;;2.30;99.90;;;;;;5122796;27;20250;-73
2023/11/18 06:18:45;;;;;;;11.63;5.93;;;2.30;99.90;;;;;;5122978;27;20217;-73
2023/11/18 06:21:33;;;;;;;12.87;6.93;;;2.30;99.90;;;;;;5123398;27;20660;-73
2023/11/18 06:24:21;;;;;;;9.83;5.90;;;2.30;99.90;;;;;;5127543;27;20222;-73
2023/11/18 06:27:10;;;;;;;11.43;5.50;;;2.30;99.90;;;;;;5122695;27;20653;-73
2023/11/18 06:29:57;;;;;;;10.67;6.03;;;2.30;99.90;;;;;;5119686;27;20242;-73
2023/11/18 06:32:44;;;;;;;11.97;5.73;;;2.40;99.90;;;;;;5125405;27;20298;-73
2023/11/18 06:35:34;;;;;;;9.23;5.80;;;2.30;99.90;;;;;;5116424;27;20199;-73
2023/11/18 06:38:22;;;;;;;11.00;5.90;;;2.40;99.90;;;;;;5117003;27;20206;-74
2023/11/18 06:41:12;;;;;;;4.17;2.63;;;2.40;99.90;;;;;;5125036;27;20225;-73
2023/11/18 06:44:00;;;;;;;3.37;1.97;;;2.50;99.90;;;;;;5122920;27;20199;-73
2023/11/18 06:46:48;;;;;;;8.47;2.80;;;2.50;99.90;;;;;;5117875;27;20722;-73
2023/11/18 06:49:35;;;;;;;6.33;2.80;;;2.50;99.90;;;;;;5126684;27;20209;-74
2023/11/18 06:52:22;;;;;;;4.77;2.70;;;2.50;99.90;;;;;;5117008;27;20199;-73
2023/11/18 06:55:11;;;;;;;4.33;2.40;;;2.60;99.90;;;;;;5121823;27;20199;-73
2023/11/18 06:57:58;;;;;;;5.17;2.30;;;2.40;99.90;;;;;;5114460;27;20575;-74
2023/11/18 07:00:45;;;;;;;5.50;3.10;;;2.50;99.90;;;;;;5126825;27;20194;-73
2023/11/18 07:03:32;;;;;;;4.50;2.50;;;2.50;99.90;;;;;;5121820;27;20201;-73
2023/11/18 07:06:22;;;;;;;3.30;2.10;;;2.50;99.90;;;;;;5125771;27;20217;-73
2023/11/18 07:09:13;;;;;;;5.03;2.70;;;2.60;99.90;;;;;;5124746;27;20213;-74
2023/11/18 07:12:01;;;;;;;6.43;2.70;;;2.60;99.90;;;;;;5120929;27;20286;-74
2023/11/18 07:14:49;;;;;;;7.83;3.13;;;2.50;99.90;;;;;;5120413;27;20318;-73
2023/11/18 07:17:36;;;;;;;6.10;3.13;;;2.50;99.90;;;;;;5117719;27;20681;-73
2023/11/18 07:20:23;;;;;;;6.97;3.90;;;2.40;99.90;;;;;;5126888;28;20194;-73
2023/11/18 07:23:10;;;;;;;6.80;3.87;;;2.30;99.90;;;;;;5116924;27;20425;-73
2023/11/18 07:25:59;;;;;;;6.30;3.20;;;2.30;99.90;;;;;;5120854;27;20239;-73
2023/11/18 07:28:47;;;;;;;6.20;3.33;;;2.30;99.90;;;;;;5121434;28;20194;-73
2023/11/18 07:31:35;;;;;;;7.83;3.87;;;2.30;99.90;;;;;;5118145;27;20768;-73
2023/11/18 07:34:23;;;;;;;9.17;5.03;;;2.40;99.90;;;;;;5119025;27;20708;-73
2023/11/18 07:37:12;;;;;;;10.53;4.77;;;2.40;99.90;;;;;;5118998;27;20220;-73
2023/11/18 07:40:00;;;;;;;10.77;4.90;;;2.50;99.90;;;;;;5122352;27;20661;-73
2023/11/18 07:42:47;;;;;;;12.43;5.93;;;2.40;99.90;;;;;;5124045;27;20215;-73
2023/11/18 07:45:38;;;;;;;13.50;5.40;;;2.60;99.90;;;;;;5114670;28;20620;-73
2023/11/18 07:48:25;;;;;;;14.80;4.57;;;2.60;99.90;;;;;;5126925;28;20228;-73
2023/11/18 07:51:14;;;;;;;10.53;4.93;;;2.70;99.90;;;;;;5115040;28;20633;-73
2023/11/18 07:54:03;;;;;;;13.67;6.50;;;2.70;99.90;;;;;;5120036;28;20588;-73
2023/11/18 07:56:50;;;;;;;11.50;6.27;;;2.40;99.90;;;;;;5125484;28;20194;-73
2023/11/18 07:59:37;;;;;;;13.83;5.43;;;2.40;99.90;;;;;;5120683;28;20229;-73
2023/11/18 08:02:27;;;;;;;16.00;7.43;;;2.30;99.90;;;;;;5126535;28;20690;-74
2023/11/18 08:05:15;;;;;;;14.37;6.97;;;2.10;99.90;;;;;;5117152;28;20195;-74
2023/11/18 08:08:03;;;;;;;18.70;8.50;;;2.20;99.90;;;;;;5119109;28;20205;-73
2023/11/18 08:10:50;;;;;;;22.53;10.13;;;2.20;99.90;;;;;;5123709;28;20312;-73
2023/11/18 08:13:37;;;;;;;19.83;10.27;;;2.20;99.90;;;;;;5121065;28;20343;-72
2023/11/18 08:16:25;;;;;;;23.40;10.40;;;2.20;99.90;;;;;;5108153;28;20203;-72
2023/11/18 08:19:14;;;;;;;22.50;9.43;;;2.20;99.90;;;;;;5128379;27;20190;-73
2023/11/18 08:22:01;;;;;;;29.37;12.23;;;2.20;99.90;;;;;;5118694;27;20684;-73
2023/11/18 08:24:49;;;;;;;28.80;10.57;;;2.20;99.90;;;;;;5131495;27;20210;-73
2023/11/18 08:27:36;;;;;;;26.80;10.63;;;2.20;99.90;;;;;;5120690;27;20201;-73
2023/11/18 08:30:23;;;;;;;25.33;9.43;;;2.20;99.90;;;;;;5120886;27;20737;-73
2023/11/18 08:33:10;;;;;;;9.50;4.10;;;2.10;99.90;;;;;;5120529;27;20195;-73
2023/11/18 08:35:59;;;;;;;18.70;8.17;;;2.00;99.90;;;;;;5125905;27;20247;-73
2023/11/18 08:38:47;;;;;;;23.53;9.70;;;2.10;99.90;;;;;;5130063;27;20326;-73
2023/11/18 08:41:34;;;;;;;18.70;8.40;;;1.90;99.90;;;;;;5130599;27;20369;-73
2023/11/18 08:44:22;;;;;;;18.73;8.70;;;2.00;99.90;;;;;;5125940;27;20230;-73
2023/11/18 08:47:09;;;;;;;22.93;9.93;;;2.00;99.90;;;;;;5124760;27;20210;-74
2023/11/18 08:49:56;;;;;;;20.87;8.90;;;2.00;99.90;;;;;;5122961;27;20230;-73
2023/11/18 08:52:46;;;;;;;17.53;8.17;;;1.90;99.90;;;;;;5128836;27;20211;-73
2023/11/18 08:55:39;;;;;;;20.13;9.87;;;2.10;99.90;;;;;;5125308;27;20206;-73
2023/11/18 08:58:29;;;;;;;23.87;11.20;;;2.10;99.90;;;;;;5125154;27;20228;-73
2023/11/18 09:01:16;;;;;;;25.30;11.33;;;2.00;99.90;;;;;;5117987;27;20198;-73
2023/11/18 09:04:04;;;;;;;23.87;10.73;;;2.00;99.90;;;;;;5127908;27;20222;-73
2023/11/18 09:06:54;;;;;;;17.03;7.63;;;2.00;99.90;;;;;;5124996;27;20199;-74
2023/11/18 09:09:43;;;;;;;6.00;2.50;;;1.80;99.90;;;;;;5118548;27;20222;-74
2023/11/18 09:12:30;;;;;;;8.50;4.70;;;1.80;99.90;;;;;;5120759;27;20206;-74
2023/11/18 09:15:22;;;;;;;11.23;4.73;;;1.60;99.90;;;;;;5129145;27;20699;-74
2023/11/18 09:18:10;;;;;;;9.57;5.13;;;1.50;99.90;;;;;;5129946;27;20191;-73
2023/11/18 09:20:59;;;;;;;4.13;1.93;;;1.40;99.90;;;;;;5126756;27;20268;-73
2023/11/18 09:23:47;;;;;;;7.50;3.70;;;1.30;99.90;;;;;;5127579;27;20195;-73
2023/11/18 09:26:36;;;;;;;8.57;5.00;;;1.30;99.90;;;;;;5122401;27;20674;-73
2023/11/18 09:29:24;;;;;;;9.10;5.07;;;1.30;99.90;;;;;;5128843;27;20229;-73
2023/11/18 09:32:12;;;;;;;9.83;5.00;;;1.30;99.90;;;;;;5123999;27;20644;-73
2023/11/18 09:35:05;;;;;;;5.50;2.77;;;1.30;99.90;;;;;;5129611;27;20231;-72
2023/11/18 09:37:55;;;;;;;9.23;4.80;;;1.40;99.90;;;;;;5125635;27;20209;-72
2023/11/18 09:40:43;;;;;;;8.67;4.70;;;1.40;99.90;;;;;;5128299;27;20577;-73
2023/11/18 09:43:36;;;;;;;10.77;5.13;;;1.40;99.90;;;;;;5123485;27;20201;-74
2023/11/18 09:46:24;;;;;;;10.43;4.83;;;1.40;99.90;;;;;;5119020;27;20203;-72
2023/11/18 09:49:17;;;;;;;8.77;4.97;;;1.40;99.90;;;;;;5119096;27;20203;-74
2023/11/18 09:52:05;;;;;;;14.00;6.77;;;1.30;99.90;;;;;;5128714;27;20195;-72
2023/11/18 09:54:58;;;;;;;12.83;7.17;;;1.30;99.90;;;;;;5128920;27;20215;-72
2023/11/18 09:57:45;;;;;;;10.57;5.67;;;1.40;99.90;;;;;;5126719;27;20254;-74
2023/11/18 10:00:34;;;;;;;11.27;6.57;;;1.40;99.90;;;;;;5118342;27;20278;-71
2023/11/18 10:03:22;;;;;;;16.83;8.17;;;1.20;99.90;;;;;;5128667;27;20204;-71
2023/11/18 10:06:10;;;;;;;4.83;2.50;;;1.30;99.90;;;;;;5127095;27;20238;-71
2023/11/18 10:08:57;;;;;;;10.23;5.50;;;1.20;99.90;;;;;;5120696;27;20198;-73
2023/11/18 10:11:46;;;;;;;15.47;7.83;;;1.20;99.90;;;;;;5117581;27;20207;-72
2023/11/18 10:14:34;;;;;;;14.97;7.57;;;1.20;99.90;;;;;;5128073;27;20207;-72
2023/11/18 10:17:24;;;;;;;16.50;8.13;;;1.20;99.90;;;;;;5123705;27;20292;-71
2023/11/18 10:20:16;;;;;;;11.63;6.00;;;1.20;99.90;;;;;;5128769;27;20233;-72
2023/11/18 10:23:09;;;;;;;13.27;7.90;;;1.20;99.90;;;;;;5128273;27;20286;-72
2023/11/18 10:25:57;;;;;;;4.60;2.80;;;1.10;99.90;;;;;;5126034;27;20300;-72
2023/11/18 10:28:44;;;;;;;3.87;2.47;;;1.10;99.90;;;;;;5123641;27;20581;-72
2023/11/18 10:31:35;;;;;;;13.27;7.70;;;1.10;99.90;;;;;;5123230;27;20671;-72
2023/11/18 10:34:24;;;;;;;5.27;2.80;;;1.10;99.90;;;;;;5119997;27;20293;-72
2023/11/18 10:37:14;;;;;;;15.73;8.83;;;1.00;99.90;;;;;;5118629;27;20210;-72
2023/11/18 10:40:05;;;;;;;15.83;8.27;;;1.10;99.90;;;;;;5127731;27;20208;-72
2023/11/18 10:42:52;;;;;;;14.23;7.60;;;1.10;99.90;;;;;;5119006;27;20566;-72
2023/11/18 10:45:40;;;;;;;13.50;5.77;;;1.20;99.90;;;;;;5127521;27;20198;-72
2023/11/18 10:48:28;;;;;;;14.03;7.90;;;1.20;99.90;;;;;;5123571;27;20199;-72
2023/11/18 10:51:19;;;;;;;13.70;7.63;;;1.20;99.90;;;;;;5117401;27;20242;-72
2023/11/18 10:54:13;;;;;;;11.90;5.50;;;1.20;99.90;;;;;;5117706;27;20213;-72
2023/11/18 10:57:07;;;;;;;11.90;5.63;;;1.10;99.90;;;;;;5128490;27;20305;-72
2023/11/18 11:00:01;;;;;;;15.40;7.63;;;1.20;99.90;;;;;;5114541;27;20207;-72
2023/11/18 11:02:49;;;;;;;15.07;7.97;;;1.20;99.90;;;;;;5125760;27;20281;-72
2023/11/18 11:05:41;;;;;;;14.17;7.37;;;1.20;99.90;;;;;;5128185;27;20198;-73
2023/11/18 11:08:31;;;;;;;14.27;7.13;;;1.20;99.90;;;;;;5110406;28;20224;-73
2023/11/18 11:11:21;;;;;;;14.53;7.83;;;1.20;99.90;;;;;;5126630;27;20608;-73
2023/11/18 11:14:08;;;;;;;13.90;7.57;;;1.30;99.90;;;;;;5125432;28;20214;-73
2023/11/18 11:16:56;;;;;;;12.93;5.93;;;1.30;99.90;;;;;;5120436;28;20278;-73
2023/11/18 11:19:48;;;;;;;6.07;2.17;;;1.30;99.90;;;;;;5115780;28;20615;-72
2023/11/18 11:22:39;;;;;;;12.20;7.03;;;1.30;99.90;;;;;;5122906;28;20622;-73
2023/11/18 11:25:31;;;;;;;11.17;6.43;;;1.20;99.90;;;;;;5117440;28;20229;-73
2023/11/18 11:28:21;;;;;;;3.70;1.87;;;1.10;99.90;;;;;;5128205;28;20203;-72
2023/11/18 11:31:15;;;;;;;12.47;6.40;;;1.10;99.90;;;;;;5117631;28;20315;-73
2023/11/18 11:34:04;;;;;;;12.93;6.87;;;1.20;99.90;;;;;;5117252;28;20287;-73
2023/11/18 11:36:52;;;;;;;14.20;7.70;;;1.10;99.90;;;;;;5121560;28;20827;-73
2023/11/18 11:39:46;;;;;;;14.70;7.50;;;1.20;99.90;;;;;;5121700;28;20206;-73
2023/11/18 11:42:35;;;;;;;14.77;7.43;;;1.20;99.90;;;;;;5120492;28;20191;-72
2023/11/18 11:45:28;;;;;;;12.83;7.10;;;1.20;99.90;;;;;;5121428;28;20673;-72
2023/11/18 11:48:19;;;;;;;13.43;6.90;;;1.10;99.90;;;;;;5112343;28;20259;-73
2023/11/18 11:51:15;;;;;;;11.67;6.50;;;0.90;99.90;;;;;;5127256;28;20788;-73
2023/11/18 11:54:03;;;;;;;11.40;6.50;;;1.00;99.90;;;;;;5127259;27;20194;-73
2023/11/18 11:56:57;;;;;;;12.33;6.63;;;1.00;99.90;;;;;;5120516;27;20204;-72
2023/11/18 12:00:01;;;;;;;8.17;4.57;;;1.00;99.90;;;;;;5126948;27;20701;-73
2023/11/18 12:02:54;;;;;;;7.47;3.47;;;1.00;99.90;;;;;;5117387;27;20762;-73
2023/11/18 12:05:43;;;;;;;11.63;5.97;;;1.00;99.90;;;;;;5131051;27;20200;-73
2023/11/18 12:08:30;;;;;;;4.37;2.33;;;0.90;99.90;;;;;;5127356;27;20210;-72
2023/11/18 12:11:20;;;;;;;11.67;6.43;;;1.00;99.90;;;;;;5129906;27;20317;-73
2023/11/18 12:14:12;;;;;;;2.67;2.07;;;0.90;99.90;;;;;;5129729;27;20207;-72
2023/11/18 12:17:07;;;;;;;10.50;6.20;;;0.90;99.90;;;;;;5128671;27;20592;-73
2023/11/18 12:19:58;;;;;;;9.83;5.60;;;0.90;99.90;;;;;;5119675;27;20203;-72
2023/11/18 12:23:13;;;;;;;8.93;4.30;;;0.80;99.90;;;;;;5122117;27;20195;-72
2023/11/18 12:26:03;;;;;;;12.57;5.33;;;0.90;99.90;;;;;;5128378;27;20205;-73
2023/11/18 12:28:50;;;;;;;11.17;6.20;;;0.80;99.90;;;;;;5119035;27;20571;-73
2023/11/18 12:31:40;;;;;;;11.07;6.50;;;0.90;99.90;;;;;;5124838;27;20740;-73
2023/11/18 12:34:53;;;;;;;9.27;4.17;;;0.90;99.90;;;;;;5128502;27;20868;-73
2023/11/18 12:38:14;;;;;;;6.30;3.00;;;0.90;99.90;;;;;;5130288;27;20214;-73
2023/11/18 12:41:04;;;;;;;12.67;6.83;;;0.90;99.90;;;;;;5085167;27;20223;-73
2023/11/18 12:44:17;;;;;;;11.23;6.03;;;0.80;99.90;;;;;;5129178;27;20203;-73
2023/11/18 12:47:09;;;;;;;13.07;6.80;;;0.80;99.90;;;;;;5128714;27;20199;-73
2023/11/18 12:50:00;;;;;;;14.90;7.50;;;0.70;99.90;;;;;;5120404;27;20333;-73
2023/11/18 12:52:49;;;;;;;13.73;7.73;;;0.70;99.90;;;;;;5127552;27;20191;-72
2023/11/18 12:55:36;;;;;;;13.63;7.40;;;0.70;99.90;;;;;;5126681;27;20222;-73
2023/11/18 12:58:24;;;;;;;13.07;7.67;;;0.70;99.90;;;;;;5126399;27;20264;-73
2023/11/18 13:01:14;;;;;;;13.27;6.43;;;0.70;99.90;;;;;;5122064;27;20199;-72
2023/11/18 13:04:01;;;;;;;14.13;7.00;;;0.80;99.90;;;;;;5128325;27;20202;-73
2023/11/18 13:06:51;;;;;;;11.50;6.13;;;0.70;99.90;;;;;;5126014;27;20585;-73
2023/11/18 13:09:40;;;;;;;11.10;6.30;;;0.70;99.90;;;;;;5127224;27;20234;-73
2023/11/18 13:12:28;;;;;;;5.10;2.90;;;0.70;99.90;;;;;;5123795;27;20204;-73
2023/11/18 13:15:16;;;;;;;4.07;2.57;;;0.70;99.90;;;;;;5128262;27;20226;-73
2023/11/18 13:18:06;;;;;;;15.50;6.97;;;0.70;99.90;;;;;;5127237;27;20210;-73
2023/11/18 13:20:57;;;;;;;13.37;6.90;;;0.70;99.90;;;;;;5128111;27;20716;-73
2023/11/18 13:23:50;;;;;;;9.37;5.87;;;0.70;99.90;;;;;;5117610;27;20194;-73
2023/11/18 13:26:38;;;;;;;12.97;6.57;;;0.60;99.90;;;;;;5113997;27;20219;-73
2023/11/18 13:29:25;;;;;;;11.20;6.57;;;0.60;99.90;;;;;;5128171;27;20209;-73
2023/11/18 13:32:12;;;;;;;12.67;7.37;;;0.70;99.90;;;;;;5127197;27;20202;-73
2023/11/18 13:35:01;;;;;;;14.23;7.80;;;0.70;99.90;;;;;;5125262;27;20217;-73
2023/11/18 13:37:49;;;;;;;9.70;4.30;;;0.80;99.90;;;;;;5117590;27;20218;-73
2023/11/18 13:40:45;;;;;;;12.03;6.13;;;0.80;99.90;;;;;;5127362;27;20680;-73
2023/11/18 13:43:43;;;;;;;8.87;4.83;;;0.70;99.90;;;;;;5127269;27;20662;-73
2023/11/18 13:46:30;;;;;;;17.23;7.83;;;0.60;99.90;;;;;;5130313;27;20202;-73
2023/11/18 13:49:17;;;;;;;12.67;7.50;;;0.70;99.90;;;;;;5128754;27;20201;-73
2023/11/18 13:52:06;;;;;;;13.03;7.70;;;0.80;99.90;;;;;;5128722;27;20200;-73
2023/11/18 13:54:57;;;;;;;13.47;7.30;;;0.60;99.90;;;;;;5121855;27;20241;-73
2023/11/18 13:57:45;;;;;;;13.63;7.87;;;0.60;99.90;;;;;;5124389;27;20195;-73
2023/11/18 14:00:33;;;;;;;12.13;5.67;;;0.50;99.90;;;;;;5125169;27;20282;-73
2023/11/18 14:03:20;;;;;;;11.47;5.67;;;0.60;99.90;;;;;;5129255;27;20211;-73
2023/11/18 14:06:10;;;;;;;14.83;7.90;;;0.60;99.90;;;;;;5128576;27;20273;-73
2023/11/18 14:08:57;;;;;;;16.53;6.93;;;0.60;99.90;;;;;;5123866;27;20564;-73
2023/11/18 14:11:44;;;;;;;19.70;8.07;;;0.60;99.90;;;;;;5112497;27;20272;-73
2023/11/18 14:14:33;;;;;;;14.30;7.93;;;0.60;99.90;;;;;;5125232;27;20211;-73
2023/11/18 14:17:21;;;;;;;17.87;8.10;;;0.60;99.90;;;;;;5127478;27;20264;-73
2023/11/18 14:20:12;;;;;;;17.20;8.50;;;0.60;99.90;;;;;;5126799;27;20291;-73
2023/11/18 14:22:59;;;;;;;17.07;9.00;;;0.60;99.90;;;;;;5116701;27;20281;-74
2023/11/18 14:25:47;;;;;;;15.30;8.37;;;0.60;99.90;;;;;;5126070;27;20199;-74
2023/11/18 14:28:34;;;;;;;16.77;9.57;;;0.60;99.90;;;;;;5122677;27;20282;-74
2023/11/18 14:31:23;;;;;;;19.53;9.43;;;0.60;99.90;;;;;;5124996;27;20206;-74
2023/11/18 14:34:10;;;;;;;16.83;8.83;;;0.60;99.90;;;;;;5126304;27;20213;-73
2023/11/18 14:36:57;;;;;;;15.27;8.07;;;0.60;99.90;;;;;;5122409;27;20753;-73
2023/11/18 14:39:46;;;;;;;13.83;5.90;;;0.60;99.90;;;;;;5127216;27;20214;-73
2023/11/18 14:42:33;;;;;;;18.20;8.20;;;0.60;99.90;;;;;;5127291;27;20289;-74